sensor_id;sensor_type;location;lat;lon;timestamp;P1;durP1;ratioP1;P2;durP2;ratioP2
39094;SDS011;24840;47.508;19.376;2023-02-04T00:01:46;10.97;;;2.53;;
39094;SDS011;24840;47.508;19.376;2023-02-04T00:04:12;11.43;;;2.23;;
39094;SDS011;24840;47.508;19.376;2023-02-04T00:06:39;14.97;;;2.87;;
39094;SDS011;24840;47.508;19.376;2023-02-04T00:09:04;11.77;;;3.17;;
39094;SDS011;24840;47.508;19.376;2023-02-04T00:11:30;7.87;;;2.13;;
39094;SDS011;24840;47.508;19.376;2023-02-04T00:13:56;10.03;;;3.47;;
39094;SDS011;24840;47.508;19.376;2023-02-04T00:16:22;7.63;;;2.23;;
39094;SDS011;24840;47.508;19.376;2023-02-04T00:18:48;10.23;;;2.10;;
39094;SDS011;24840;47.508;19.376;2023-02-04T00:21:13;10.87;;;2.17;;
39094;SDS011;24840;47.508;19.376;2023-02-04T00:23:39;7.17;;;1.90;;
39094;SDS011;24840;47.508;19.376;2023-02-04T00:26:05;12.13;;;2.50;;
39094;SDS011;24840;47.508;19.376;2023-02-04T00:28:31;10.10;;;2.10;;
39094;SDS011;24840;47.508;19.376;2023-02-04T00:30:56;9.00;;;2.10;;
39094;SDS011;24840;47.508;19.376;2023-02-04T00:33:22;11.93;;;3.13;;
39094;SDS011;24840;47.508;19.376;2023-02-04T00:35:48;9.40;;;2.43;;
39094;SDS011;24840;47.508;19.376;2023-02-04T00:38:14;11.43;;;3.30;;
39094;SDS011;24840;47.508;19.376;2023-02-04T00:40:41;9.30;;;2.03;;
39094;SDS011;24840;47.508;19.376;2023-02-04T00:43:06;7.93;;;1.73;;
39094;SDS011;24840;47.508;19.376;2023-02-04T00:45:32;10.33;;;2.23;;
39094;SDS011;24840;47.508;19.376;2023-02-04T00:47:58;10.23;;;2.23;;
39094;SDS011;24840;47.508;19.376;2023-02-04T00:50:24;7.30;;;2.47;;
39094;SDS011;24840;47.508;19.376;2023-02-04T00:52:49;10.07;;;2.60;;
39094;SDS011;24840;47.508;19.376;2023-02-04T00:55:16;11.67;;;2.83;;
39094;SDS011;24840;47.508;19.376;2023-02-04T00:57:43;13.07;;;3.10;;
39094;SDS011;24840;47.508;19.376;2023-02-04T01:00:11;9.17;;;2.27;;
39094;SDS011;24840;47.508;19.376;2023-02-04T01:02:38;8.33;;;2.47;;
39094;SDS011;24840;47.508;19.376;2023-02-04T01:05:05;11.93;;;2.93;;
39094;SDS011;24840;47.508;19.376;2023-02-04T01:07:31;11.17;;;2.90;;
39094;SDS011;24840;47.508;19.376;2023-02-04T01:09:57;8.17;;;2.20;;
39094;SDS011;24840;47.508;19.376;2023-02-04T01:12:23;11.43;;;2.53;;
39094;SDS011;24840;47.508;19.376;2023-02-04T01:14:51;12.47;;;2.63;;
39094;SDS011;24840;47.508;19.376;2023-02-04T01:17:17;7.60;;;2.13;;
39094;SDS011;24840;47.508;19.376;2023-02-04T01:19:44;10.97;;;2.97;;
39094;SDS011;24840;47.508;19.376;2023-02-04T01:22:09;5.50;;;1.63;;
39094;SDS011;24840;47.508;19.376;2023-02-04T01:24:35;9.87;;;2.43;;
39094;SDS011;24840;47.508;19.376;2023-02-04T01:27:01;8.37;;;2.43;;
39094;SDS011;24840;47.508;19.376;2023-02-04T01:29:27;9.27;;;2.83;;
39094;SDS011;24840;47.508;19.376;2023-02-04T01:31:53;7.73;;;1.87;;
39094;SDS011;24840;47.508;19.376;2023-02-04T01:34:19;9.00;;;2.67;;
39094;SDS011;24840;47.508;19.376;2023-02-04T01:36:44;6.40;;;2.27;;
39094;SDS011;24840;47.508;19.376;2023-02-04T01:39:10;11.77;;;2.53;;
39094;SDS011;24840;47.508;19.376;2023-02-04T01:41:36;6.57;;;2.20;;
39094;SDS011;24840;47.508;19.376;2023-02-04T01:44:01;7.17;;;2.10;;
39094;SDS011;24840;47.508;19.376;2023-02-04T01:46:27;11.33;;;2.30;;
39094;SDS011;24840;47.508;19.376;2023-02-04T01:48:53;9.13;;;2.13;;
39094;SDS011;24840;47.508;19.376;2023-02-04T01:51:21;6.87;;;2.20;;
39094;SDS011;24840;47.508;19.376;2023-02-04T01:53:52;10.70;;;3.17;;
39094;SDS011;24840;47.508;19.376;2023-02-04T01:56:20;10.73;;;2.33;;
39094;SDS011;24840;47.508;19.376;2023-02-04T01:58:47;12.50;;;2.67;;
39094;SDS011;24840;47.508;19.376;2023-02-04T02:04:05;8.95;;;2.13;;
39094;SDS011;24840;47.508;19.376;2023-02-04T02:06:32;10.20;;;2.70;;
39094;SDS011;24840;47.508;19.376;2023-02-04T02:09:00;6.60;;;1.90;;
39094;SDS011;24840;47.508;19.376;2023-02-04T02:11:26;12.47;;;3.40;;
39094;SDS011;24840;47.508;19.376;2023-02-04T02:13:52;10.20;;;3.17;;
39094;SDS011;24840;47.508;19.376;2023-02-04T02:16:18;7.87;;;1.83;;
39094;SDS011;24840;47.508;19.376;2023-02-04T02:18:44;12.63;;;2.27;;
39094;SDS011;24840;47.508;19.376;2023-02-04T02:21:11;10.37;;;3.00;;
39094;SDS011;24840;47.508;19.376;2023-02-04T02:23:45;6.67;;;3.03;;
39094;SDS011;24840;47.508;19.376;2023-02-04T02:26:11;10.27;;;2.63;;
39094;SDS011;24840;47.508;19.376;2023-02-04T02:28:39;4.47;;;1.57;;
39094;SDS011;24840;47.508;19.376;2023-02-04T02:31:05;8.03;;;2.37;;
39094;SDS011;24840;47.508;19.376;2023-02-04T02:33:31;8.43;;;2.53;;
39094;SDS011;24840;47.508;19.376;2023-02-04T02:35:57;11.93;;;3.33;;
39094;SDS011;24840;47.508;19.376;2023-02-04T02:38:22;8.93;;;2.27;;
39094;SDS011;24840;47.508;19.376;2023-02-04T02:40:48;8.90;;;2.33;;
39094;SDS011;24840;47.508;19.376;2023-02-04T02:43:16;6.43;;;2.07;;
39094;SDS011;24840;47.508;19.376;2023-02-04T02:45:45;8.97;;;1.80;;
39094;SDS011;24840;47.508;19.376;2023-02-04T02:48:11;9.73;;;2.47;;
39094;SDS011;24840;47.508;19.376;2023-02-04T02:50:37;10.00;;;2.07;;
39094;SDS011;24840;47.508;19.376;2023-02-04T02:53:05;5.70;;;1.73;;
39094;SDS011;24840;47.508;19.376;2023-02-04T02:55:39;4.93;;;1.37;;
39094;SDS011;24840;47.508;19.376;2023-02-04T02:58:09;8.27;;;2.20;;
39094;SDS011;24840;47.508;19.376;2023-02-04T03:00:42;6.93;;;2.13;;
39094;SDS011;24840;47.508;19.376;2023-02-04T03:03:16;13.07;;;2.57;;
39094;SDS011;24840;47.508;19.376;2023-02-04T03:05:48;11.17;;;1.67;;
39094;SDS011;24840;47.508;19.376;2023-02-04T03:08:17;6.87;;;2.13;;
39094;SDS011;24840;47.508;19.376;2023-02-04T03:10:44;9.93;;;2.20;;
39094;SDS011;24840;47.508;19.376;2023-02-04T03:13:10;9.10;;;2.73;;
39094;SDS011;24840;47.508;19.376;2023-02-04T03:15:38;11.53;;;2.60;;
39094;SDS011;24840;47.508;19.376;2023-02-04T03:18:04;5.30;;;1.83;;
39094;SDS011;24840;47.508;19.376;2023-02-04T03:20:30;3.83;;;1.40;;
39094;SDS011;24840;47.508;19.376;2023-02-04T03:22:56;8.23;;;2.90;;
39094;SDS011;24840;47.508;19.376;2023-02-04T03:25:23;6.87;;;1.70;;
39094;SDS011;24840;47.508;19.376;2023-02-04T03:27:56;10.57;;;3.17;;
39094;SDS011;24840;47.508;19.376;2023-02-04T03:30:23;10.27;;;2.60;;
39094;SDS011;24840;47.508;19.376;2023-02-04T03:32:50;6.33;;;1.80;;
39094;SDS011;24840;47.508;19.376;2023-02-04T03:35:16;6.50;;;2.23;;
39094;SDS011;24840;47.508;19.376;2023-02-04T03:37:42;7.10;;;2.90;;
39094;SDS011;24840;47.508;19.376;2023-02-04T03:40:08;6.63;;;2.60;;
39094;SDS011;24840;47.508;19.376;2023-02-04T03:42:34;7.20;;;2.40;;
39094;SDS011;24840;47.508;19.376;2023-02-04T03:45:00;8.93;;;2.23;;
39094;SDS011;24840;47.508;19.376;2023-02-04T03:47:26;3.90;;;1.63;;
39094;SDS011;24840;47.508;19.376;2023-02-04T03:49:52;7.70;;;1.90;;
39094;SDS011;24840;47.508;19.376;2023-02-04T03:52:18;4.40;;;1.47;;
39094;SDS011;24840;47.508;19.376;2023-02-04T03:54:44;4.57;;;1.60;;
39094;SDS011;24840;47.508;19.376;2023-02-04T03:57:11;4.70;;;1.30;;
39094;SDS011;24840;47.508;19.376;2023-02-04T03:59:37;8.70;;;1.87;;
39094;SDS011;24840;47.508;19.376;2023-02-04T04:02:03;7.47;;;1.67;;
39094;SDS011;24840;47.508;19.376;2023-02-04T04:04:28;10.33;;;2.13;;
39094;SDS011;24840;47.508;19.376;2023-02-04T04:06:54;7.60;;;1.60;;
39094;SDS011;24840;47.508;19.376;2023-02-04T04:09:20;4.67;;;1.17;;
39094;SDS011;24840;47.508;19.376;2023-02-04T04:11:46;12.63;;;1.50;;
39094;SDS011;24840;47.508;19.376;2023-02-04T04:14:11;4.37;;;1.00;;
39094;SDS011;24840;47.508;19.376;2023-02-04T04:16:37;4.97;;;1.10;;
39094;SDS011;24840;47.508;19.376;2023-02-04T04:19:03;9.73;;;1.43;;
39094;SDS011;24840;47.508;19.376;2023-02-04T04:21:29;6.30;;;1.27;;
39094;SDS011;24840;47.508;19.376;2023-02-04T04:23:55;9.07;;;1.60;;
39094;SDS011;24840;47.508;19.376;2023-02-04T04:26:20;7.77;;;1.63;;
39094;SDS011;24840;47.508;19.376;2023-02-04T04:28:46;8.60;;;1.60;;
39094;SDS011;24840;47.508;19.376;2023-02-04T04:31:12;10.80;;;2.67;;
39094;SDS011;24840;47.508;19.376;2023-02-04T04:33:38;9.40;;;1.50;;
39094;SDS011;24840;47.508;19.376;2023-02-04T04:36:04;5.17;;;0.93;;
39094;SDS011;24840;47.508;19.376;2023-02-04T04:38:31;5.90;;;1.57;;
39094;SDS011;24840;47.508;19.376;2023-02-04T04:40:56;6.63;;;1.77;;
39094;SDS011;24840;47.508;19.376;2023-02-04T04:43:22;7.90;;;1.40;;
39094;SDS011;24840;47.508;19.376;2023-02-04T04:45:48;6.53;;;1.30;;
39094;SDS011;24840;47.508;19.376;2023-02-04T04:48:14;7.30;;;1.10;;
39094;SDS011;24840;47.508;19.376;2023-02-04T04:50:39;8.10;;;1.70;;
39094;SDS011;24840;47.508;19.376;2023-02-04T04:53:05;11.17;;;1.70;;
39094;SDS011;24840;47.508;19.376;2023-02-04T04:55:38;5.77;;;1.47;;
39094;SDS011;24840;47.508;19.376;2023-02-04T04:58:05;3.27;;;1.07;;
39094;SDS011;24840;47.508;19.376;2023-02-04T05:00:31;8.90;;;1.80;;
39094;SDS011;24840;47.508;19.376;2023-02-04T05:02:57;10.20;;;2.33;;
39094;SDS011;24840;47.508;19.376;2023-02-04T05:05:23;6.50;;;1.63;;
39094;SDS011;24840;47.508;19.376;2023-02-04T05:07:48;10.83;;;2.27;;
39094;SDS011;24840;47.508;19.376;2023-02-04T05:10:14;6.17;;;1.63;;
39094;SDS011;24840;47.508;19.376;2023-02-04T05:12:40;3.73;;;1.17;;
39094;SDS011;24840;47.508;19.376;2023-02-04T05:15:06;5.37;;;1.23;;
39094;SDS011;24840;47.508;19.376;2023-02-04T05:17:32;7.20;;;1.67;;
39094;SDS011;24840;47.508;19.376;2023-02-04T05:19:58;8.03;;;1.43;;
39094;SDS011;24840;47.508;19.376;2023-02-04T05:22:23;5.53;;;1.10;;
39094;SDS011;24840;47.508;19.376;2023-02-04T05:24:49;4.63;;;1.30;;
39094;SDS011;24840;47.508;19.376;2023-02-04T05:27:15;6.03;;;1.40;;
39094;SDS011;24840;47.508;19.376;2023-02-04T05:29:40;9.10;;;1.17;;
39094;SDS011;24840;47.508;19.376;2023-02-04T05:32:06;5.00;;;0.67;;
39094;SDS011;24840;47.508;19.376;2023-02-04T05:34:32;5.80;;;1.17;;
39094;SDS011;24840;47.508;19.376;2023-02-04T05:36:57;2.77;;;1.10;;
39094;SDS011;24840;47.508;19.376;2023-02-04T05:39:23;9.57;;;1.40;;
39094;SDS011;24840;47.508;19.376;2023-02-04T05:41:49;4.87;;;1.07;;
39094;SDS011;24840;47.508;19.376;2023-02-04T05:44:14;5.77;;;1.40;;
39094;SDS011;24840;47.508;19.376;2023-02-04T05:46:40;5.07;;;1.33;;
39094;SDS011;24840;47.508;19.376;2023-02-04T05:49:06;4.57;;;0.70;;
39094;SDS011;24840;47.508;19.376;2023-02-04T05:51:32;4.33;;;1.40;;
39094;SDS011;24840;47.508;19.376;2023-02-04T05:53:58;4.37;;;1.00;;
39094;SDS011;24840;47.508;19.376;2023-02-04T05:56:24;5.47;;;1.23;;
39094;SDS011;24840;47.508;19.376;2023-02-04T05:58:50;3.23;;;0.90;;
39094;SDS011;24840;47.508;19.376;2023-02-04T06:01:15;9.87;;;1.17;;
39094;SDS011;24840;47.508;19.376;2023-02-04T06:03:41;4.53;;;0.73;;
39094;SDS011;24840;47.508;19.376;2023-02-04T06:06:07;2.77;;;0.70;;
39094;SDS011;24840;47.508;19.376;2023-02-04T06:08:33;8.13;;;1.50;;
39094;SDS011;24840;47.508;19.376;2023-02-04T06:10:59;3.77;;;0.53;;
39094;SDS011;24840;47.508;19.376;2023-02-04T06:13:25;1.20;;;0.70;;
39094;SDS011;24840;47.508;19.376;2023-02-04T06:15:50;3.87;;;0.70;;
39094;SDS011;24840;47.508;19.376;2023-02-04T06:18:16;2.10;;;0.60;;
39094;SDS011;24840;47.508;19.376;2023-02-04T06:20:42;2.13;;;0.30;;
39094;SDS011;24840;47.508;19.376;2023-02-04T06:23:07;1.93;;;0.47;;
39094;SDS011;24840;47.508;19.376;2023-02-04T06:25:33;2.57;;;0.97;;
39094;SDS011;24840;47.508;19.376;2023-02-04T06:27:59;1.13;;;0.50;;
39094;SDS011;24840;47.508;19.376;2023-02-04T06:30:24;4.23;;;0.30;;
39094;SDS011;24840;47.508;19.376;2023-02-04T06:32:50;1.07;;;0.40;;
39094;SDS011;24840;47.508;19.376;2023-02-04T06:35:16;1.43;;;0.33;;
39094;SDS011;24840;47.508;19.376;2023-02-04T06:37:42;1.63;;;0.40;;
39094;SDS011;24840;47.508;19.376;2023-02-04T06:40:08;0.40;;;0.20;;
39094;SDS011;24840;47.508;19.376;2023-02-04T06:42:34;1.03;;;0.30;;
39094;SDS011;24840;47.508;19.376;2023-02-04T06:45:00;1.27;;;0.37;;
39094;SDS011;24840;47.508;19.376;2023-02-04T06:47:26;1.00;;;0.40;;
39094;SDS011;24840;47.508;19.376;2023-02-04T06:49:52;0.70;;;0.30;;
39094;SDS011;24840;47.508;19.376;2023-02-04T06:52:17;1.50;;;0.30;;
39094;SDS011;24840;47.508;19.376;2023-02-04T06:54:43;0.27;;;0.20;;
39094;SDS011;24840;47.508;19.376;2023-02-04T06:57:09;0.83;;;0.20;;
39094;SDS011;24840;47.508;19.376;2023-02-04T06:59:36;1.17;;;0.43;;
39094;SDS011;24840;47.508;19.376;2023-02-04T07:02:03;1.10;;;0.30;;
39094;SDS011;24840;47.508;19.376;2023-02-04T07:04:30;0.83;;;0.10;;
39094;SDS011;24840;47.508;19.376;2023-02-04T07:06:55;0.80;;;0.20;;
39094;SDS011;24840;47.508;19.376;2023-02-04T07:09:21;1.27;;;0.27;;
39094;SDS011;24840;47.508;19.376;2023-02-04T07:11:47;0.83;;;0.20;;
39094;SDS011;24840;47.508;19.376;2023-02-04T07:14:13;1.43;;;0.83;;
39094;SDS011;24840;47.508;19.376;2023-02-04T07:16:38;0.43;;;0.30;;
39094;SDS011;24840;47.508;19.376;2023-02-04T07:19:04;0.90;;;0.37;;
39094;SDS011;24840;47.508;19.376;2023-02-04T07:21:30;0.73;;;0.20;;
39094;SDS011;24840;47.508;19.376;2023-02-04T07:23:55;0.90;;;0.50;;
39094;SDS011;24840;47.508;19.376;2023-02-04T07:26:21;0.87;;;0.40;;
39094;SDS011;24840;47.508;19.376;2023-02-04T07:28:47;1.10;;;0.60;;
39094;SDS011;24840;47.508;19.376;2023-02-04T07:31:13;1.10;;;0.60;;
39094;SDS011;24840;47.508;19.376;2023-02-04T07:33:39;1.60;;;0.70;;
39094;SDS011;24840;47.508;19.376;2023-02-04T07:36:05;0.80;;;0.43;;
39094;SDS011;24840;47.508;19.376;2023-02-04T07:38:31;1.10;;;0.50;;
39094;SDS011;24840;47.508;19.376;2023-02-04T07:40:57;1.60;;;1.00;;
39094;SDS011;24840;47.508;19.376;2023-02-04T07:43:22;1.73;;;0.77;;
39094;SDS011;24840;47.508;19.376;2023-02-04T07:45:48;1.77;;;0.80;;
39094;SDS011;24840;47.508;19.376;2023-02-04T07:48:14;1.20;;;0.63;;
39094;SDS011;24840;47.508;19.376;2023-02-04T07:50:40;1.90;;;0.90;;
39094;SDS011;24840;47.508;19.376;2023-02-04T07:53:05;2.57;;;1.33;;
39094;SDS011;24840;47.508;19.376;2023-02-04T07:55:31;2.70;;;1.63;;
39094;SDS011;24840;47.508;19.376;2023-02-04T07:57:57;1.57;;;0.83;;
39094;SDS011;24840;47.508;19.376;2023-02-04T08:00:23;1.83;;;1.07;;
39094;SDS011;24840;47.508;19.376;2023-02-04T08:02:49;2.13;;;1.50;;
39094;SDS011;24840;47.508;19.376;2023-02-04T08:05:15;2.93;;;1.47;;
39094;SDS011;24840;47.508;19.376;2023-02-04T08:07:41;3.20;;;1.20;;
39094;SDS011;24840;47.508;19.376;2023-02-04T08:10:07;2.97;;;1.63;;
39094;SDS011;24840;47.508;19.376;2023-02-04T08:12:34;2.20;;;1.57;;
39094;SDS011;24840;47.508;19.376;2023-02-04T08:14:59;3.10;;;1.90;;
39094;SDS011;24840;47.508;19.376;2023-02-04T08:17:26;3.37;;;1.97;;
39094;SDS011;24840;47.508;19.376;2023-02-04T08:19:52;4.07;;;2.67;;
39094;SDS011;24840;47.508;19.376;2023-02-04T08:22:18;7.73;;;3.93;;
39094;SDS011;24840;47.508;19.376;2023-02-04T08:24:43;5.23;;;3.17;;
39094;SDS011;24840;47.508;19.376;2023-02-04T08:27:09;3.07;;;2.43;;
39094;SDS011;24840;47.508;19.376;2023-02-04T08:29:39;2.93;;;1.57;;
39094;SDS011;24840;47.508;19.376;2023-02-04T08:32:04;3.63;;;2.33;;
39094;SDS011;24840;47.508;19.376;2023-02-04T08:34:30;3.80;;;1.97;;
39094;SDS011;24840;47.508;19.376;2023-02-04T08:36:56;4.37;;;2.30;;
39094;SDS011;24840;47.508;19.376;2023-02-04T08:39:22;4.30;;;2.17;;
39094;SDS011;24840;47.508;19.376;2023-02-04T08:41:47;4.03;;;2.43;;
39094;SDS011;24840;47.508;19.376;2023-02-04T08:44:15;4.13;;;2.40;;
39094;SDS011;24840;47.508;19.376;2023-02-04T08:46:41;5.10;;;2.27;;
39094;SDS011;24840;47.508;19.376;2023-02-04T08:49:07;3.57;;;2.37;;
39094;SDS011;24840;47.508;19.376;2023-02-04T08:51:32;3.47;;;2.17;;
39094;SDS011;24840;47.508;19.376;2023-02-04T08:53:58;2.37;;;2.03;;
39094;SDS011;24840;47.508;19.376;2023-02-04T08:56:24;3.57;;;1.80;;
39094;SDS011;24840;47.508;19.376;2023-02-04T08:58:49;3.30;;;2.07;;
39094;SDS011;24840;47.508;19.376;2023-02-04T09:01:17;3.23;;;1.97;;
39094;SDS011;24840;47.508;19.376;2023-02-04T09:03:43;4.83;;;2.00;;
39094;SDS011;24840;47.508;19.376;2023-02-04T09:06:09;3.10;;;2.03;;
39094;SDS011;24840;47.508;19.376;2023-02-04T09:08:34;4.00;;;1.73;;
39094;SDS011;24840;47.508;19.376;2023-02-04T09:11:00;2.93;;;2.07;;
39094;SDS011;24840;47.508;19.376;2023-02-04T09:13:26;5.30;;;2.60;;
39094;SDS011;24840;47.508;19.376;2023-02-04T09:15:52;3.50;;;2.43;;
39094;SDS011;24840;47.508;19.376;2023-02-04T09:18:18;4.57;;;1.80;;
39094;SDS011;24840;47.508;19.376;2023-02-04T09:20:46;5.20;;;1.50;;
39094;SDS011;24840;47.508;19.376;2023-02-04T09:23:13;63.37;;;6.70;;
39094;SDS011;24840;47.508;19.376;2023-02-04T09:25:40;25.77;;;3.40;;
39094;SDS011;24840;47.508;19.376;2023-02-04T09:28:07;107.80;;;9.27;;
39094;SDS011;24840;47.508;19.376;2023-02-04T09:30:35;16.27;;;2.03;;
39094;SDS011;24840;47.508;19.376;2023-02-04T09:33:01;38.30;;;3.57;;
39094;SDS011;24840;47.508;19.376;2023-02-04T09:35:27;59.97;;;5.07;;
39094;SDS011;24840;47.508;19.376;2023-02-04T09:37:53;1.70;;;1.00;;
39094;SDS011;24840;47.508;19.376;2023-02-04T09:40:18;7.47;;;1.47;;
39094;SDS011;24840;47.508;19.376;2023-02-04T09:42:48;1.73;;;1.03;;
39094;SDS011;24840;47.508;19.376;2023-02-04T09:45:16;1.50;;;0.47;;
39094;SDS011;24840;47.508;19.376;2023-02-04T09:47:45;3.00;;;0.80;;
39094;SDS011;24840;47.508;19.376;2023-02-04T09:50:15;1.83;;;0.83;;
39094;SDS011;24840;47.508;19.376;2023-02-04T09:52:47;1.00;;;0.50;;
39094;SDS011;24840;47.508;19.376;2023-02-04T09:55:16;1.23;;;0.73;;
39094;SDS011;24840;47.508;19.376;2023-02-04T09:57:44;3.00;;;0.77;;
39094;SDS011;24840;47.508;19.376;2023-02-04T10:00:17;3.73;;;0.87;;
39094;SDS011;24840;47.508;19.376;2023-02-04T10:02:48;2.27;;;1.00;;
39094;SDS011;24840;47.508;19.376;2023-02-04T10:05:15;2.60;;;0.43;;
39094;SDS011;24840;47.508;19.376;2023-02-04T10:07:42;2.63;;;1.17;;
39094;SDS011;24840;47.508;19.376;2023-02-04T10:10:16;1.33;;;0.60;;
39094;SDS011;24840;47.508;19.376;2023-02-04T10:12:44;1.90;;;0.93;;
39094;SDS011;24840;47.508;19.376;2023-02-04T10:15:12;1.93;;;1.00;;
39094;SDS011;24840;47.508;19.376;2023-02-04T10:17:39;1.40;;;0.57;;
39094;SDS011;24840;47.508;19.376;2023-02-04T10:20:16;2.20;;;1.07;;
39094;SDS011;24840;47.508;19.376;2023-02-04T10:22:44;2.40;;;0.97;;
39094;SDS011;24840;47.508;19.376;2023-02-04T10:25:14;1.03;;;0.53;;
39094;SDS011;24840;47.508;19.376;2023-02-04T10:30:25;3.27;;;1.70;;
39094;SDS011;24840;47.508;19.376;2023-02-04T10:32:58;2.10;;;0.80;;
39094;SDS011;24840;47.508;19.376;2023-02-04T10:35:24;2.13;;;0.80;;
39094;SDS011;24840;47.508;19.376;2023-02-04T10:38:04;1.73;;;0.87;;
39094;SDS011;24840;47.508;19.376;2023-02-04T10:40:31;2.07;;;0.73;;
39094;SDS011;24840;47.508;19.376;2023-02-04T10:43:05;1.53;;;0.70;;
39094;SDS011;24840;47.508;19.376;2023-02-04T10:45:34;1.50;;;0.70;;
39094;SDS011;24840;47.508;19.376;2023-02-04T10:48:01;2.27;;;0.70;;
39094;SDS011;24840;47.508;19.376;2023-02-04T10:50:27;3.67;;;1.10;;
39094;SDS011;24840;47.508;19.376;2023-02-04T10:52:55;2.67;;;0.83;;
39094;SDS011;24840;47.508;19.376;2023-02-04T10:55:45;1.63;;;0.80;;
39094;SDS011;24840;47.508;19.376;2023-02-04T10:58:13;1.90;;;0.80;;
39094;SDS011;24840;47.508;19.376;2023-02-04T11:00:42;1.20;;;0.80;;
39094;SDS011;24840;47.508;19.376;2023-02-04T11:03:25;2.07;;;1.20;;
39094;SDS011;24840;47.508;19.376;2023-02-04T11:05:52;1.43;;;0.53;;
39094;SDS011;24840;47.508;19.376;2023-02-04T11:08:25;2.27;;;0.93;;
39094;SDS011;24840;47.508;19.376;2023-02-04T11:19:00;2.58;;;0.77;;
39094;SDS011;24840;47.508;19.376;2023-02-04T11:34:06;3.57;;;1.07;;
39094;SDS011;24840;47.508;19.376;2023-02-04T11:36:33;2.60;;;0.80;;
39094;SDS011;24840;47.508;19.376;2023-02-04T11:39:05;3.00;;;1.00;;
39094;SDS011;24840;47.508;19.376;2023-02-04T11:41:41;1.80;;;0.90;;
39094;SDS011;24840;47.508;19.376;2023-02-04T11:44:09;1.47;;;0.67;;
39094;SDS011;24840;47.508;19.376;2023-02-04T11:46:36;2.47;;;1.23;;
39094;SDS011;24840;47.508;19.376;2023-02-04T11:49:01;1.67;;;0.87;;
39094;SDS011;24840;47.508;19.376;2023-02-04T11:51:31;2.23;;;1.07;;
39094;SDS011;24840;47.508;19.376;2023-02-04T11:53:58;3.80;;;1.50;;
39094;SDS011;24840;47.508;19.376;2023-02-04T11:56:26;1.10;;;0.70;;
39094;SDS011;24840;47.508;19.376;2023-02-04T11:58:54;1.70;;;0.97;;
39094;SDS011;24840;47.508;19.376;2023-02-04T12:01:23;2.07;;;0.87;;
39094;SDS011;24840;47.508;19.376;2023-02-04T12:03:58;1.47;;;0.73;;
39094;SDS011;24840;47.508;19.376;2023-02-04T12:06:27;2.90;;;1.13;;
39094;SDS011;24840;47.508;19.376;2023-02-04T12:09:07;1.43;;;0.60;;
39094;SDS011;24840;47.508;19.376;2023-02-04T12:11:58;2.17;;;0.77;;
39094;SDS011;24840;47.508;19.376;2023-02-04T12:14:35;1.37;;;0.70;;
39094;SDS011;24840;47.508;19.376;2023-02-04T12:17:13;1.87;;;1.00;;
39094;SDS011;24840;47.508;19.376;2023-02-04T12:19:44;8.23;;;1.98;;
39094;SDS011;24840;47.508;19.376;2023-02-04T12:22:10;2.53;;;1.50;;
39094;SDS011;24840;47.508;19.376;2023-02-04T12:24:37;1.63;;;1.07;;
39094;SDS011;24840;47.508;19.376;2023-02-04T12:27:03;1.30;;;0.83;;
39094;SDS011;24840;47.508;19.376;2023-02-04T12:29:29;1.70;;;0.97;;
39094;SDS011;24840;47.508;19.376;2023-02-04T12:31:55;1.37;;;0.63;;
39094;SDS011;24840;47.508;19.376;2023-02-04T12:34:20;0.67;;;0.50;;
39094;SDS011;24840;47.508;19.376;2023-02-04T12:36:46;1.37;;;0.67;;
39094;SDS011;24840;47.508;19.376;2023-02-04T12:39:12;1.40;;;0.63;;
39094;SDS011;24840;47.508;19.376;2023-02-04T12:41:38;2.03;;;1.23;;
39094;SDS011;24840;47.508;19.376;2023-02-04T12:44:03;2.60;;;0.93;;
39094;SDS011;24840;47.508;19.376;2023-02-04T12:46:29;3.33;;;2.00;;
39094;SDS011;24840;47.508;19.376;2023-02-04T12:48:55;7.73;;;3.17;;
39094;SDS011;24840;47.508;19.376;2023-02-04T12:51:21;3.23;;;1.40;;
39094;SDS011;24840;47.508;19.376;2023-02-04T12:53:47;4.70;;;2.13;;
39094;SDS011;24840;47.508;19.376;2023-02-04T12:56:15;3.70;;;1.50;;
39094;SDS011;24840;47.508;19.376;2023-02-04T12:58:44;2.30;;;0.50;;
39094;SDS011;24840;47.508;19.376;2023-02-04T13:01:10;1.30;;;0.73;;
39094;SDS011;24840;47.508;19.376;2023-02-04T13:03:36;2.70;;;1.17;;
39094;SDS011;24840;47.508;19.376;2023-02-04T13:06:01;3.97;;;2.10;;
39094;SDS011;24840;47.508;19.376;2023-02-04T13:08:27;2.50;;;1.80;;
39094;SDS011;24840;47.508;19.376;2023-02-04T13:10:53;3.10;;;2.07;;
39094;SDS011;24840;47.508;19.376;2023-02-04T13:13:20;1.87;;;1.53;;
39094;SDS011;24840;47.508;19.376;2023-02-04T13:15:46;4.20;;;0.70;;
39094;SDS011;24840;47.508;19.376;2023-02-04T13:18:13;7.87;;;5.33;;
39094;SDS011;24840;47.508;19.376;2023-02-04T13:20:39;4.60;;;3.00;;
39094;SDS011;24840;47.508;19.376;2023-02-04T13:23:06;3.17;;;1.77;;
39094;SDS011;24840;47.508;19.376;2023-02-04T13:25:32;3.80;;;2.53;;
39094;SDS011;24840;47.508;19.376;2023-02-04T13:27:58;26.37;;;14.47;;
39094;SDS011;24840;47.508;19.376;2023-02-04T13:30:23;27.17;;;13.77;;
39094;SDS011;24840;47.508;19.376;2023-02-04T13:32:49;9.77;;;5.83;;
39094;SDS011;24840;47.508;19.376;2023-02-04T13:35:15;10.27;;;6.47;;
39094;SDS011;24840;47.508;19.376;2023-02-04T13:37:41;11.53;;;7.30;;
39094;SDS011;24840;47.508;19.376;2023-02-04T13:40:07;5.80;;;3.90;;
39094;SDS011;24840;47.508;19.376;2023-02-04T13:42:35;3.07;;;1.23;;
39094;SDS011;24840;47.508;19.376;2023-02-04T13:45:00;2.43;;;1.10;;
39094;SDS011;24840;47.508;19.376;2023-02-04T13:47:26;2.70;;;1.33;;
39094;SDS011;24840;47.508;19.376;2023-02-04T13:49:52;3.17;;;1.10;;
39094;SDS011;24840;47.508;19.376;2023-02-04T13:52:17;6.67;;;1.67;;
39094;SDS011;24840;47.508;19.376;2023-02-04T13:54:44;3.47;;;1.23;;
39094;SDS011;24840;47.508;19.376;2023-02-04T13:57:10;3.63;;;1.97;;
39094;SDS011;24840;47.508;19.376;2023-02-04T13:59:35;4.03;;;1.75;;
39094;SDS011;24840;47.508;19.376;2023-02-04T14:02:01;5.30;;;2.33;;
39094;SDS011;24840;47.508;19.376;2023-02-04T14:04:27;4.10;;;1.83;;
39094;SDS011;24840;47.508;19.376;2023-02-04T14:06:53;4.40;;;2.00;;
39094;SDS011;24840;47.508;19.376;2023-02-04T14:09:20;2.53;;;1.10;;
39094;SDS011;24840;47.508;19.376;2023-02-04T14:11:47;2.03;;;1.20;;
39094;SDS011;24840;47.508;19.376;2023-02-04T14:14:13;5.60;;;1.00;;
39094;SDS011;24840;47.508;19.376;2023-02-04T14:16:38;3.00;;;1.30;;
39094;SDS011;24840;47.508;19.376;2023-02-04T14:19:05;2.43;;;1.10;;
39094;SDS011;24840;47.508;19.376;2023-02-04T14:21:31;2.47;;;1.53;;
39094;SDS011;24840;47.508;19.376;2023-02-04T14:23:57;5.50;;;2.77;;
39094;SDS011;24840;47.508;19.376;2023-02-04T14:26:23;3.53;;;2.40;;
39094;SDS011;24840;47.508;19.376;2023-02-04T14:28:48;2.70;;;1.70;;
39094;SDS011;24840;47.508;19.376;2023-02-04T14:31:14;2.83;;;2.10;;
39094;SDS011;24840;47.508;19.376;2023-02-04T14:33:40;6.33;;;3.30;;
39094;SDS011;24840;47.508;19.376;2023-02-04T14:36:06;7.37;;;4.10;;
39094;SDS011;24840;47.508;19.376;2023-02-04T14:38:31;16.03;;;7.90;;
39094;SDS011;24840;47.508;19.376;2023-02-04T14:40:58;11.37;;;5.23;;
39094;SDS011;24840;47.508;19.376;2023-02-04T14:43:24;8.73;;;4.47;;
39094;SDS011;24840;47.508;19.376;2023-02-04T14:45:50;5.20;;;2.90;;
39094;SDS011;24840;47.508;19.376;2023-02-04T14:48:16;10.33;;;5.93;;
39094;SDS011;24840;47.508;19.376;2023-02-04T14:50:42;2.97;;;1.43;;
39094;SDS011;24840;47.508;19.376;2023-02-04T14:53:08;2.30;;;1.43;;
39094;SDS011;24840;47.508;19.376;2023-02-04T14:55:34;4.33;;;2.03;;
39094;SDS011;24840;47.508;19.376;2023-02-04T14:58:00;2.97;;;1.73;;